Time;durP1;ratioP1;P1;durP2;ratioP2;P2;SDS_P1;SDS_P2;PMS_P1;PMS_P2;Temp;Humidity;BMP_temperature;BMP_pressure;BME280_temperature;BME280_humidity;BME280_pressure;Samples;Min_cycle;Max_cycle;Signal;HPM_P1;HPM_P2
2021/06/14 00:01:29;;;;;;;5.13;1.80;;;;;;;;;;5013220;28;20026;-70
2021/06/14 00:03:56;;;;;;;2.58;1.65;;;;;;;;;;5015045;28;20064;-70
2021/06/14 00:06:23;;;;;;;3.45;1.75;;;;;;;;;;5012779;28;20044;-70
2021/06/14 00:08:50;;;;;;;4.88;1.80;;;;;;;;;;5007078;28;20081;-71
2021/06/14 00:11:17;;;;;;;3.75;1.58;;;;;;;;;;5012768;28;20387;-70
2021/06/14 00:13:45;;;;;;;3.10;1.80;;;;;;;;;;5013308;28;20025;-70
2021/06/14 00:16:12;;;;;;;4.50;1.67;;;;;;;;;;5007306;28;20471;-70
2021/06/14 00:18:39;;;;;;;3.97;1.70;;;;;;;;;;4995143;28;20026;-70
2021/06/14 00:21:13;;;;;;;3.95;2.13;;;;;;;;;;5003261;28;20030;-70
2021/06/14 00:23:41;;;;;;;3.50;1.70;;;;;;;;;;5014241;28;20037;-70
2021/06/14 00:26:10;;;;;;;3.05;2.08;;;;;;;;;;5012292;28;20387;-70
2021/06/14 00:28:37;;;;;;;4.75;2.20;;;;;;;;;;5013843;28;20375;-70
2021/06/14 00:31:04;;;;;;;3.35;1.70;;;;;;;;;;5011565;28;20549;-70
2021/06/14 00:33:32;;;;;;;2.97;1.30;;;;;;;;;;5011610;28;20080;-69
2021/06/14 00:35:59;;;;;;;4.07;1.52;;;;;;;;;;5012474;28;20482;-70
2021/06/14 00:38:26;;;;;;;6.32;1.90;;;;;;;;;;5014418;28;20026;-70
2021/06/14 00:40:53;;;;;;;4.13;1.63;;;;;;;;;;5012509;28;20034;-70
2021/06/14 00:43:20;;;;;;;3.30;1.50;;;;;;;;;;5009968;28;20026;-69
2021/06/14 00:45:49;;;;;;;3.15;1.90;;;;;;;;;;5010716;28;20038;-69
2021/06/14 00:48:16;;;;;;;2.97;1.77;;;;;;;;;;5012719;28;20045;-69
2021/06/14 00:50:48;;;;;;;3.90;1.80;;;;;;;;;;5012259;28;20022;-70
2021/06/14 00:53:35;;;;;;;5.30;2.53;;;;;;;;;;5014117;28;20152;-70
2021/06/14 00:56:03;;;;;;;5.90;2.22;;;;;;;;;;5011830;28;20026;-70
2021/06/14 00:58:30;;;;;;;3.92;1.83;;;;;;;;;;5013582;28;20022;-70
2021/06/14 01:00:58;;;;;;;2.60;1.50;;;;;;;;;;5011329;28;20022;-70
2021/06/14 01:03:28;;;;;;;4.32;1.30;;;;;;;;;;5004734;28;20064;-70
2021/06/14 01:05:58;;;;;;;3.22;1.60;;;;;;;;;;5011349;28;20034;-70
2021/06/14 01:08:26;;;;;;;3.30;1.45;;;;;;;;;;5013545;28;20038;-70
2021/06/14 01:10:53;;;;;;;2.70;1.40;;;;;;;;;;5008557;28;20053;-70
2021/06/14 01:13:26;;;;;;;3.67;1.55;;;;;;;;;;5013554;28;20018;-70
2021/06/14 01:15:56;;;;;;;3.40;1.20;;;;;;;;;;5010144;28;20033;-70
2021/06/14 01:18:29;;;;;;;2.88;1.52;;;;;;;;;;5013196;28;20497;-70
2021/06/14 01:21:01;;;;;;;2.45;1.40;;;;;;;;;;5009897;28;20547;-70
2021/06/14 01:23:46;;;;;;;2.72;1.15;;;;;;;;;;4993408;28;20036;-70
2021/06/14 01:26:21;;;;;;;5.43;1.67;;;;;;;;;;5003707;28;20030;-70
2021/06/14 01:28:53;;;;;;;9.00;2.08;;;;;;;;;;5013029;28;20029;-70
2021/06/14 01:31:21;;;;;;;3.05;1.20;;;;;;;;;;5009917;28;20032;-70
2021/06/14 01:33:49;;;;;;;2.97;1.65;;;;;;;;;;4992303;28;20034;-70
2021/06/14 01:36:18;;;;;;;4.40;1.50;;;;;;;;;;4998354;28;20118;-70
2021/06/14 01:38:46;;;;;;;4.60;1.63;;;;;;;;;;5012573;28;20061;-70
2021/06/14 01:41:14;;;;;;;2.85;1.90;;;;;;;;;;5010671;28;20089;-70
2021/06/14 01:43:42;;;;;;;3.55;1.67;;;;;;;;;;5012284;28;20093;-70
2021/06/14 01:46:10;;;;;;;6.90;1.83;;;;;;;;;;5011180;28;20042;-70
2021/06/14 01:48:38;;;;;;;3.72;1.67;;;;;;;;;;5010298;28;20034;-70
2021/06/14 01:51:07;;;;;;;2.70;1.42;;;;;;;;;;5010900;28;20058;-71
2021/06/14 01:53:35;;;;;;;3.45;1.30;;;;;;;;;;5011518;28;20045;-71
2021/06/14 01:56:03;;;;;;;1.75;1.30;;;;;;;;;;5010471;28;20041;-70
2021/06/14 01:58:30;;;;;;;4.93;1.42;;;;;;;;;;5005241;28;20037;-70
2021/06/14 02:00:58;;;;;;;6.00;1.40;;;;;;;;;;5010753;28;20034;-70
2021/06/14 02:03:25;;;;;;;3.17;1.70;;;;;;;;;;5012181;28;20517;-70
2021/06/14 02:05:53;;;;;;;3.17;1.20;;;;;;;;;;5004122;28;20088;-70
2021/06/14 02:08:21;;;;;;;4.13;1.70;;;;;;;;;;5012163;28;20105;-70
2021/06/14 02:10:49;;;;;;;6.07;1.80;;;;;;;;;;5010402;28;20101;-70
2021/06/14 02:13:18;;;;;;;4.10;1.42;;;;;;;;;;5012413;28;20026;-70
2021/06/14 02:15:45;;;;;;;2.13;1.42;;;;;;;;;;5009373;28;20053;-70
2021/06/14 02:18:13;;;;;;;4.38;1.70;;;;;;;;;;5012341;28;20490;-70
2021/06/14 02:20:41;;;;;;;3.80;1.92;;;;;;;;;;5008864;28;20394;-70
2021/06/14 02:23:08;;;;;;;2.38;1.63;;;;;;;;;;5012383;28;20029;-70
2021/06/14 02:25:36;;;;;;;2.38;1.10;;;;;;;;;;5006979;28;20505;-70
2021/06/14 02:28:03;;;;;;;4.00;1.08;;;;;;;;;;5011803;28;20505;-70
2021/06/14 02:30:30;;;;;;;1.17;0.98;;;;;;;;;;5004992;28;20399;-70
2021/06/14 02:32:57;;;;;;;2.58;1.60;;;;;;;;;;5012575;28;20025;-70
2021/06/14 02:35:26;;;;;;;3.17;1.00;;;;;;;;;;5010433;28;20022;-70
2021/06/14 02:37:57;;;;;;;2.05;0.93;;;;;;;;;;5012231;28;20356;-70
2021/06/14 02:40:30;;;;;;;5.90;1.02;;;;;;;;;;5008852;28;20033;-70
2021/06/14 02:42:58;;;;;;;2.45;0.88;;;;;;;;;;5012391;28;20022;-71
2021/06/14 02:45:27;;;;;;;2.67;0.70;;;;;;;;;;5010453;28;20030;-70
2021/06/14 02:47:54;;;;;;;4.80;1.08;;;;;;;;;;5012144;28;20022;-70
2021/06/14 02:50:22;;;;;;;2.63;0.82;;;;;;;;;;5009765;28;20056;-70
2021/06/14 02:52:50;;;;;;;4.38;1.00;;;;;;;;;;4996518;28;20034;-71
2021/06/14 02:55:19;;;;;;;2.20;0.80;;;;;;;;;;4998215;28;20029;-70
2021/06/14 02:57:51;;;;;;;3.38;0.70;;;;;;;;;;5014888;28;20037;-71
2021/06/14 03:00:18;;;;;;;1.45;0.60;;;;;;;;;;5012612;28;20029;-69
2021/06/14 03:02:48;;;;;;;3.08;0.85;;;;;;;;;;5010102;28;20038;-70
2021/06/14 03:05:15;;;;;;;2.83;0.70;;;;;;;;;;4998672;28;20046;-70
2021/06/14 03:07:42;;;;;;;3.15;1.08;;;;;;;;;;5013699;28;20018;-69
2021/06/14 03:10:10;;;;;;;1.52;0.57;;;;;;;;;;5016515;28;20048;-69
2021/06/14 03:12:37;;;;;;;1.75;0.73;;;;;;;;;;5014625;28;20080;-69
2021/06/14 03:15:05;;;;;;;1.13;0.47;;;;;;;;;;5013196;28;20479;-69
2021/06/14 03:17:33;;;;;;;2.88;0.88;;;;;;;;;;5013619;28;20026;-69
2021/06/14 03:20:03;;;;;;;3.28;0.70;;;;;;;;;;4996611;28;20471;-69
2021/06/14 03:22:30;;;;;;;2.13;0.50;;;;;;;;;;5015509;28;20026;-69
2021/06/14 03:24:57;;;;;;;2.10;0.50;;;;;;;;;;5000620;28;20488;-69
2021/06/14 03:27:25;;;;;;;0.90;0.40;;;;;;;;;;5015316;28;20490;-69
2021/06/14 03:29:54;;;;;;;3.80;0.93;;;;;;;;;;5012941;28;20040;-69
2021/06/14 03:32:21;;;;;;;1.00;0.80;;;;;;;;;;5012383;28;20109;-69
2021/06/14 03:34:48;;;;;;;2.28;0.50;;;;;;;;;;5012517;28;20054;-69
2021/06/14 03:37:16;;;;;;;1.27;0.50;;;;;;;;;;5012331;28;20018;-69
2021/06/14 03:39:43;;;;;;;3.00;0.50;;;;;;;;;;5008540;28;20383;-69
2021/06/14 03:42:10;;;;;;;2.13;0.50;;;;;;;;;;5012043;28;20021;-69
2021/06/14 03:44:38;;;;;;;3.15;0.47;;;;;;;;;;5014109;28;20157;-69
2021/06/14 03:47:05;;;;;;;3.15;0.45;;;;;;;;;;5010470;28;20049;-69
2021/06/14 03:49:32;;;;;;;4.32;0.40;;;;;;;;;;5010846;28;20034;-69
2021/06/14 03:51:59;;;;;;;2.60;0.50;;;;;;;;;;5010743;28;20030;-69
2021/06/14 03:54:27;;;;;;;1.42;0.60;;;;;;;;;;5005726;28;20025;-69
2021/06/14 03:56:54;;;;;;;1.63;0.80;;;;;;;;;;5011136;28;20050;-69
2021/06/14 03:59:21;;;;;;;3.08;0.57;;;;;;;;;;5014224;28;20033;-69
2021/06/14 04:01:48;;;;;;;2.85;1.20;;;;;;;;;;5013087;28;20029;-69
2021/06/14 04:07:01;;;;;;;4.20;1.15;;;;;;;;;;5010056;28;20095;-69
2021/06/14 04:09:28;;;;;;;1.67;0.40;;;;;;;;;;5012398;28;20026;-69
2021/06/14 04:11:55;;;;;;;1.40;0.60;;;;;;;;;;5009753;28;20022;-69
2021/06/14 04:14:22;;;;;;;2.45;0.70;;;;;;;;;;5008980;28;20053;-71
2021/06/14 04:16:49;;;;;;;4.55;0.88;;;;;;;;;;5007677;28;20035;-69
2021/06/14 04:19:17;;;;;;;4.22;0.52;;;;;;;;;;4996180;28;20041;-69
2021/06/14 04:21:44;;;;;;;3.03;0.75;;;;;;;;;;5009448;28;20034;-69
2021/06/14 04:24:11;;;;;;;2.80;0.40;;;;;;;;;;5013368;28;20422;-69
2021/06/14 04:26:38;;;;;;;2.85;0.50;;;;;;;;;;5007793;28;20022;-69
2021/06/14 04:29:06;;;;;;;2.55;0.50;;;;;;;;;;5013365;28;20037;-69
2021/06/14 04:31:33;;;;;;;0.75;0.40;;;;;;;;;;5013192;28;20034;-69
2021/06/14 04:34:00;;;;;;;1.15;0.40;;;;;;;;;;5012006;28;20034;-69
2021/06/14 04:36:27;;;;;;;2.45;0.40;;;;;;;;;;5008929;28;20441;-68
2021/06/14 04:38:54;;;;;;;3.42;1.05;;;;;;;;;;5004169;28;20065;-69
2021/06/14 04:41:21;;;;;;;5.32;0.60;;;;;;;;;;5009722;28;20080;-69
2021/06/14 04:43:48;;;;;;;0.88;0.40;;;;;;;;;;5013730;28;20065;-69
2021/06/14 04:46:16;;;;;;;2.25;0.60;;;;;;;;;;5009043;28;20668;-69
2021/06/14 04:48:43;;;;;;;2.00;0.52;;;;;;;;;;5010829;28;20050;-70
2021/06/14 04:51:10;;;;;;;1.80;0.50;;;;;;;;;;5010699;28;20033;-69
2021/06/14 04:53:37;;;;;;;2.63;0.70;;;;;;;;;;5011840;28;20089;-69
2021/06/14 04:56:05;;;;;;;2.17;0.43;;;;;;;;;;5011849;28;20121;-69
2021/06/14 04:58:32;;;;;;;1.33;0.60;;;;;;;;;;5008786;28;20030;-69
2021/06/14 05:00:59;;;;;;;5.60;0.68;;;;;;;;;;5014867;28;20026;-69
2021/06/14 05:03:26;;;;;;;2.95;0.45;;;;;;;;;;4999416;28;20057;-70
2021/06/14 05:05:53;;;;;;;3.30;0.45;;;;;;;;;;5011298;28;20073;-70
2021/06/14 05:08:20;;;;;;;1.85;0.35;;;;;;;;;;5006956;28;20030;-70
2021/06/14 05:10:48;;;;;;;3.35;0.65;;;;;;;;;;5009665;28;20034;-71
2021/06/14 05:13:15;;;;;;;3.40;0.43;;;;;;;;;;5009634;28;20046;-70
2021/06/14 05:15:43;;;;;;;1.77;0.70;;;;;;;;;;4994220;28;20376;-71
2021/06/14 05:18:10;;;;;;;1.52;0.70;;;;;;;;;;5011827;28;20025;-70
2021/06/14 05:20:37;;;;;;;3.33;1.15;;;;;;;;;;5010817;28;20380;-69
2021/06/14 05:23:05;;;;;;;3.00;0.55;;;;;;;;;;5011179;28;20040;-70
2021/06/14 05:25:32;;;;;;;1.05;0.50;;;;;;;;;;5007508;28;20180;-70
2021/06/14 05:28:00;;;;;;;1.50;0.50;;;;;;;;;;5009927;28;20063;-73
2021/06/14 05:30:27;;;;;;;4.90;1.48;;;;;;;;;;5006787;28;20121;-71
2021/06/14 05:32:54;;;;;;;3.50;1.40;;;;;;;;;;5010119;28;20021;-70
2021/06/14 05:35:21;;;;;;;3.13;0.60;;;;;;;;;;5005872;28;20102;-70
2021/06/14 05:37:49;;;;;;;3.70;0.60;;;;;;;;;;5017156;28;20107;-70
2021/06/14 05:40:17;;;;;;;4.03;0.90;;;;;;;;;;5020802;28;20021;-70
2021/06/14 05:42:44;;;;;;;1.10;0.40;;;;;;;;;;5009613;28;20077;-70
2021/06/14 05:45:12;;;;;;;3.70;0.60;;;;;;;;;;5010353;28;20128;-70
2021/06/14 05:47:39;;;;;;;2.45;0.60;;;;;;;;;;5019644;28;20108;-70
2021/06/14 05:50:07;;;;;;;3.08;1.70;;;;;;;;;;5005855;28;20054;-70
2021/06/14 05:52:34;;;;;;;3.45;1.00;;;;;;;;;;5012967;28;20038;-70
2021/06/14 05:55:01;;;;;;;4.18;1.83;;;;;;;;;;5010270;28;20034;-70
2021/06/14 05:57:28;;;;;;;3.28;2.00;;;;;;;;;;5012147;28;20418;-70
2021/06/14 05:59:55;;;;;;;1.77;0.98;;;;;;;;;;5011391;28;20032;-70
2021/06/14 06:02:22;;;;;;;3.25;0.85;;;;;;;;;;5013731;28;20057;-70
2021/06/14 06:04:49;;;;;;;3.88;0.80;;;;;;;;;;4998771;28;20028;-71
2021/06/14 06:07:17;;;;;;;2.85;0.40;;;;;;;;;;5006738;28;20088;-70
2021/06/14 06:09:44;;;;;;;3.20;0.70;;;;;;;;;;5011726;28;20026;-72
2021/06/14 06:12:11;;;;;;;2.85;0.60;;;;;;;;;;5009113;28;20026;-70
2021/06/14 06:14:38;;;;;;;1.63;0.55;;;;;;;;;;5013358;28;20036;-70
2021/06/14 06:17:05;;;;;;;1.38;0.70;;;;;;;;;;5012269;28;20482;-70
2021/06/14 06:19:33;;;;;;;3.05;1.05;;;;;;;;;;5013230;28;20072;-71
2021/06/14 06:22:00;;;;;;;3.35;0.90;;;;;;;;;;5009662;28;20075;-71
2021/06/14 06:24:27;;;;;;;3.40;1.02;;;;;;;;;;5010042;28;20535;-71
2021/06/14 06:26:54;;;;;;;2.40;0.98;;;;;;;;;;5001450;28;20038;-71
2021/06/14 06:29:21;;;;;;;2.83;0.70;;;;;;;;;;5009427;28;20033;-72
2021/06/14 06:31:48;;;;;;;1.75;0.65;;;;;;;;;;5004422;28;20107;-71
2021/06/14 06:34:15;;;;;;;1.70;0.70;;;;;;;;;;5009981;28;20022;-71
2021/06/14 06:36:42;;;;;;;2.90;1.30;;;;;;;;;;5010595;28;20033;-70
2021/06/14 06:39:10;;;;;;;2.67;1.13;;;;;;;;;;5010976;28;20030;-70
2021/06/14 06:41:37;;;;;;;2.67;0.70;;;;;;;;;;5005122;28;20034;-71
2021/06/14 06:44:04;;;;;;;1.45;0.88;;;;;;;;;;5009801;28;20384;-70
2021/06/14 06:46:31;;;;;;;2.72;1.10;;;;;;;;;;5008398;28;20139;-70
2021/06/14 06:48:58;;;;;;;1.55;1.00;;;;;;;;;;5013473;28;20025;-71
2021/06/14 06:51:25;;;;;;;1.65;0.93;;;;;;;;;;5006391;28;20446;-70
2021/06/14 06:54:10;;;;;;;3.08;1.17;;;;;;;;;;5017804;28;20029;-70
2021/06/14 06:56:56;;;;;;;7.82;1.23;;;;;;;;;;5005047;28;20021;-70
2021/06/14 06:59:23;;;;;;;4.93;1.85;;;;;;;;;;5011183;28;20101;-71
2021/06/14 07:01:51;;;;;;;3.17;1.00;;;;;;;;;;5005303;28;20034;-70
2021/06/14 07:04:18;;;;;;;2.85;1.65;;;;;;;;;;5011798;28;20041;-69
2021/06/14 07:06:45;;;;;;;2.00;0.98;;;;;;;;;;5008362;28;20037;-70
2021/06/14 07:09:12;;;;;;;4.97;1.00;;;;;;;;;;5010468;28;20586;-70
2021/06/14 07:11:40;;;;;;;3.75;1.33;;;;;;;;;;5009419;28;20038;-69
2021/06/14 07:14:07;;;;;;;3.22;1.25;;;;;;;;;;5010758;28;20030;-70
2021/06/14 07:16:35;;;;;;;4.72;1.50;;;;;;;;;;5008908;28;20033;-70
2021/06/14 07:19:03;;;;;;;5.00;1.38;;;;;;;;;;5011035;28;20085;-70
2021/06/14 07:21:30;;;;;;;2.58;1.63;;;;;;;;;;5000821;28;20045;-70
2021/06/14 07:23:57;;;;;;;3.03;2.13;;;;;;;;;;5007699;28;20137;-70
2021/06/14 07:26:25;;;;;;;16.08;4.20;;;;;;;;;;5010274;28;20022;-70
2021/06/14 07:28:52;;;;;;;6.07;3.88;;;;;;;;;;5011435;28;20120;-70
2021/06/14 07:31:20;;;;;;;5.05;2.85;;;;;;;;;;5004863;28;20044;-70
2021/06/14 07:33:48;;;;;;;6.45;2.58;;;;;;;;;;5011049;28;20386;-70
2021/06/14 07:36:15;;;;;;;5.00;3.28;;;;;;;;;;5009776;28;20416;-69
2021/06/14 07:38:43;;;;;;;7.18;2.67;;;;;;;;;;5010295;28;20438;-70
2021/06/14 07:41:10;;;;;;;5.05;2.58;;;;;;;;;;5010826;28;20053;-69
2021/06/14 07:43:37;;;;;;;5.43;2.88;;;;;;;;;;5014904;28;20366;-70
2021/06/14 07:46:05;;;;;;;5.45;2.72;;;;;;;;;;5013306;28;20057;-70
2021/06/14 07:48:32;;;;;;;5.13;2.88;;;;;;;;;;5015278;28;20033;-70
2021/06/14 07:50:59;;;;;;;5.57;3.55;;;;;;;;;;5014049;28;20024;-70
2021/06/14 07:53:27;;;;;;;8.30;4.00;;;;;;;;;;5014164;28;20076;-70
2021/06/14 07:55:56;;;;;;;5.35;3.28;;;;;;;;;;4994969;28;20034;-70
2021/06/14 07:58:23;;;;;;;6.03;3.40;;;;;;;;;;5015305;28;20066;-70
2021/06/14 08:00:50;;;;;;;5.80;2.90;;;;;;;;;;5012091;28;20026;-70
2021/06/14 08:03:17;;;;;;;7.18;2.95;;;;;;;;;;5014185;28;20479;-70
2021/06/14 08:05:45;;;;;;;11.45;4.47;;;;;;;;;;5026285;28;20060;-69
2021/06/14 08:08:13;;;;;;;4.38;2.83;;;;;;;;;;5012340;28;20030;-69
2021/06/14 08:10:41;;;;;;;8.45;3.10;;;;;;;;;;5012674;28;20566;-69
2021/06/14 08:13:08;;;;;;;5.57;3.55;;;;;;;;;;5012636;28;20029;-70
2021/06/14 08:15:35;;;;;;;6.93;5.45;;;;;;;;;;4993513;28;20018;-70
2021/06/14 08:25:52;;;;;;;19.15;12.65;;;;;;;;;;5008784;28;20069;-70
2021/06/14 08:28:19;;;;;;;8.18;3.80;;;;;;;;;;5013170;28;20036;-69
2021/06/14 08:30:46;;;;;;;4.68;3.42;;;;;;;;;;5009682;28;20535;-70
2021/06/14 08:33:13;;;;;;;6.47;3.65;;;;;;;;;;4996414;28;20385;-70
2021/06/14 08:35:40;;;;;;;5.25;2.35;;;;;;;;;;5012230;28;20025;-70
2021/06/14 08:38:08;;;;;;;5.20;2.47;;;;;;;;;;5010278;28;20029;-70
2021/06/14 08:40:36;;;;;;;5.18;2.40;;;;;;;;;;4993667;28;20021;-70
2021/06/14 08:43:05;;;;;;;3.72;2.35;;;;;;;;;;5013745;28;20034;-70
2021/06/14 08:45:38;;;;;;;4.78;2.30;;;;;;;;;;5009980;28;20034;-70
2021/06/14 08:48:06;;;;;;;4.55;2.40;;;;;;;;;;5011447;28;20037;-70
2021/06/14 08:50:33;;;;;;;4.07;2.00;;;;;;;;;;5011200;28;20022;-70
2021/06/14 08:53:00;;;;;;;3.42;2.30;;;;;;;;;;5008460;28;20115;-70
2021/06/14 08:55:28;;;;;;;3.55;2.38;;;;;;;;;;5004317;28;20026;-70
2021/06/14 08:57:55;;;;;;;6.00;2.65;;;;;;;;;;5011186;28;20037;-70
2021/06/14 09:00:23;;;;;;;4.80;2.30;;;;;;;;;;5004682;28;20102;-70
2021/06/14 09:02:51;;;;;;;3.47;2.10;;;;;;;;;;5007581;28;20037;-70
2021/06/14 09:05:20;;;;;;;5.00;2.35;;;;;;;;;;5004457;28;20018;-70
2021/06/14 09:07:48;;;;;;;4.38;2.03;;;;;;;;;;5009104;28;20072;-70
2021/06/14 09:10:24;;;;;;;5.80;2.85;;;;;;;;;;5009079;28;20021;-70
2021/06/14 09:12:52;;;;;;;4.13;2.30;;;;;;;;;;5010830;28;20022;-70
2021/06/14 09:15:19;;;;;;;7.40;3.38;;;;;;;;;;5012418;28;20026;-70
2021/06/14 09:17:56;;;;;;;10.18;4.43;;;;;;;;;;5008510;28;20022;-70
2021/06/14 09:20:25;;;;;;;9.43;4.43;;;;;;;;;;5007580;28;20033;-69
2021/06/14 09:22:54;;;;;;;7.88;4.18;;;;;;;;;;5012275;28;20492;-70
2021/06/14 09:25:21;;;;;;;8.85;5.32;;;;;;;;;;5011067;28;20145;-70
2021/06/14 09:27:50;;;;;;;10.93;4.78;;;;;;;;;;5013060;28;20025;-70
2021/06/14 09:30:25;;;;;;;12.50;7.72;;;;;;;;;;5009981;28;20022;-70
2021/06/14 09:32:54;;;;;;;12.88;7.15;;;;;;;;;;5012157;28;20017;-69
2021/06/14 09:35:23;;;;;;;8.30;6.72;;;;;;;;;;5010456;28;20025;-69
2021/06/14 09:37:57;;;;;;;11.88;8.20;;;;;;;;;;5011893;28;20065;-69
2021/06/14 09:40:28;;;;;;;8.63;6.85;;;;;;;;;;5010263;28;20099;-69
2021/06/14 09:42:55;;;;;;;10.07;6.63;;;;;;;;;;5010892;28;20038;-70
2021/06/14 09:45:23;;;;;;;7.25;4.63;;;;;;;;;;5006248;28;20366;-70
2021/06/14 09:47:53;;;;;;;7.97;5.00;;;;;;;;;;5008034;28;20037;-69
2021/06/14 09:50:31;;;;;;;10.35;4.53;;;;;;;;;;5009958;28;20540;-70
2021/06/14 09:53:25;;;;;;;10.52;4.32;;;;;;;;;;4993016;28;20072;-69
2021/06/14 09:55:53;;;;;;;6.88;3.85;;;;;;;;;;5008640;28;20049;-69
2021/06/14 09:58:26;;;;;;;6.50;4.90;;;;;;;;;;5011976;28;20390;-70
2021/06/14 10:00:55;;;;;;;5.50;3.70;;;;;;;;;;5010498;28;20025;-69
2021/06/14 10:03:24;;;;;;;6.63;3.83;;;;;;;;;;5012165;28;20108;-69
2021/06/14 10:05:53;;;;;;;6.50;3.85;;;;;;;;;;5008842;28;20044;-70
2021/06/14 10:08:28;;;;;;;9.57;3.60;;;;;;;;;;5002605;28;20026;-70
2021/06/14 10:11:08;;;;;;;5.43;2.95;;;;;;;;;;4990945;28;20030;-70
2021/06/14 10:13:37;;;;;;;4.43;2.67;;;;;;;;;;5002439;28;20018;-70
2021/06/14 10:16:06;;;;;;;6.07;2.55;;;;;;;;;;5009856;28;20055;-70
2021/06/14 10:18:34;;;;;;;5.45;2.80;;;;;;;;;;5010728;28;20037;-70
2021/06/14 10:21:03;;;;;;;6.13;2.80;;;;;;;;;;5009128;28;20112;-70
2021/06/14 10:23:30;;;;;;;4.30;2.67;;;;;;;;;;5010992;28;20079;-70
2021/06/14 10:25:58;;;;;;;9.32;4.40;;;;;;;;;;5001293;28;20034;-70
2021/06/14 10:28:25;;;;;;;13.43;5.72;;;;;;;;;;4999071;28;20173;-70
2021/06/14 10:30:53;;;;;;;9.40;3.10;;;;;;;;;;5009801;28;20439;-70
2021/06/14 10:33:24;;;;;;;5.53;3.13;;;;;;;;;;5023316;28;20124;-70
2021/06/14 10:35:53;;;;;;;6.30;3.80;;;;;;;;;;5020222;28;20050;-70
2021/06/14 10:38:21;;;;;;;8.27;3.90;;;;;;;;;;5012030;28;20040;-70
2021/06/14 10:40:49;;;;;;;9.48;4.50;;;;;;;;;;5008080;28;20049;-70
2021/06/14 10:43:21;;;;;;;13.10;4.00;;;;;;;;;;5011263;28;20567;-70
2021/06/14 10:45:48;;;;;;;8.98;4.47;;;;;;;;;;5007553;28;20041;-70
2021/06/14 10:48:15;;;;;;;8.23;4.07;;;;;;;;;;5011447;28;20026;-70
2021/06/14 10:50:42;;;;;;;9.18;4.97;;;;;;;;;;5009688;28;20482;-70
2021/06/14 10:53:09;;;;;;;9.93;5.65;;;;;;;;;;4993763;28;20030;-70
2021/06/14 10:55:40;;;;;;;7.07;5.30;;;;;;;;;;5009515;28;20414;-70
2021/06/14 10:58:16;;;;;;;13.93;5.95;;;;;;;;;;5011721;28;20033;-70
2021/06/14 11:00:44;;;;;;;11.52;5.88;;;;;;;;;;5007488;28;20030;-70
2021/06/14 11:03:14;;;;;;;11.50;6.18;;;;;;;;;;5005980;28;20021;-70
2021/06/14 11:05:41;;;;;;;10.65;5.68;;;;;;;;;;5006755;28;20482;-70
2021/06/14 11:08:25;;;;;;;10.20;5.28;;;;;;;;;;5011413;28;20030;-70
2021/06/14 11:10:52;;;;;;;;;;;;;;;;;;5010171;28;20125;-70
2021/06/14 11:13:19;;;;;;;9.90;4.50;;;;;;;;;;5011725;28;20396;-70
2021/06/14 11:15:50;;;;;;;9.80;4.65;;;;;;;;;;5009195;28;20037;-70
2021/06/14 11:18:24;;;;;;;11.32;4.82;;;;;;;;;;5013435;28;20017;-70
2021/06/14 11:20:53;;;;;;;12.50;5.05;;;;;;;;;;5003644;28;20419;-70
2021/06/14 11:23:22;;;;;;;7.53;4.70;;;;;;;;;;4997689;28;20096;-70
2021/06/14 11:25:50;;;;;;;9.80;5.20;;;;;;;;;;5011382;28;20046;-70
2021/06/14 11:28:36;;;;;;;9.82;5.57;;;;;;;;;;4997560;28;20378;-70
2021/06/14 11:31:23;;;;;;;10.77;6.00;;;;;;;;;;5011955;28;20452;-70
2021/06/14 11:33:51;;;;;;;11.02;6.28;;;;;;;;;;5015214;28;20111;-70
2021/06/14 11:36:22;;;;;;;14.82;7.15;;;;;;;;;;5011901;28;20073;-70
2021/06/14 11:38:50;;;;;;;9.15;6.15;;;;;;;;;;5014392;28;20029;-70
2021/06/14 11:41:35;;;;;;;12.30;6.47;;;;;;;;;;5014384;28;20204;-70
2021/06/14 11:44:21;;;;;;;11.40;7.13;;;;;;;;;;5014011;28;20034;-70
2021/06/14 11:46:49;;;;;;;10.77;6.40;;;;;;;;;;4995119;28;20447;-70
2021/06/14 11:49:16;;;;;;;9.57;6.70;;;;;;;;;;5009607;28;20157;-70
2021/06/14 11:51:44;;;;;;;13.05;7.07;;;;;;;;;;5011069;28;20479;-69
2021/06/14 11:54:15;;;;;;;11.55;6.43;;;;;;;;;;5005256;28;20049;-69
2021/06/14 11:56:42;;;;;;;9.85;6.90;;;;;;;;;;5007899;28;20033;-69
2021/06/14 11:59:10;;;;;;;13.00;6.82;;;;;;;;;;5011561;28;20025;-69
2021/06/14 12:01:39;;;;;;;9.98;6.57;;;;;;;;;;5009398;28;20033;-71
2021/06/14 12:04:10;;;;;;;11.25;7.38;;;;;;;;;;4999791;28;20041;-71
2021/06/14 12:06:52;;;;;;;11.70;7.15;;;;;;;;;;5008943;28;20072;-70
2021/06/14 12:09:27;;;;;;;12.57;8.20;;;;;;;;;;4994191;28;20026;-70
2021/06/14 12:12:01;;;;;;;11.57;7.63;;;;;;;;;;5012728;28;20022;-70
2021/06/14 12:14:28;;;;;;;;;;;;;;;;;;5013340;28;20018;-69
2021/06/14 12:17:08;;;;;;;10.65;6.50;;;;;;;;;;5012051;28;19909;-69
2021/06/14 12:19:36;;;;;;;13.68;8.02;;;;;;;;;;5001154;28;20100;-70
2021/06/14 12:22:09;;;;;;;10.90;8.10;;;;;;;;;;4995481;28;20065;-70
2021/06/14 12:24:37;;;;;;;11.35;7.68;;;;;;;;;;5012548;28;20046;-70
2021/06/14 12:27:05;;;;;;;12.75;7.78;;;;;;;;;;5011496;28;20080;-71
2021/06/14 12:29:32;;;;;;;10.98;7.35;;;;;;;;;;5011517;28;20034;-70
2021/06/14 12:32:07;;;;;;;14.10;8.20;;;;;;;;;;5010316;28;20037;-70
2021/06/14 12:34:37;;;;;;;12.80;7.65;;;;;;;;;;5012028;28;20645;-70
2021/06/14 12:37:07;;;;;;;12.30;7.65;;;;;;;;;;5010934;28;20083;-70
2021/06/14 12:39:34;;;;;;;12.73;8.68;;;;;;;;;;5012162;28;20038;-70
2021/06/14 12:42:02;;;;;;;15.25;8.13;;;;;;;;;;5011870;28;20021;-70
2021/06/14 12:44:29;;;;;;;12.93;7.78;;;;;;;;;;5014128;28;20101;-70
2021/06/14 12:46:56;;;;;;;12.00;7.93;;;;;;;;;;5010654;28;20034;-69
2021/06/14 12:49:24;;;;;;;13.02;7.72;;;;;;;;;;5012861;28;20040;-69
2021/06/14 12:51:51;;;;;;;14.60;8.88;;;;;;;;;;5011468;28;20050;-69
2021/06/14 12:54:19;;;;;;;13.10;7.93;;;;;;;;;;5011918;28;20045;-71
2021/06/14 12:56:57;;;;;;;15.48;8.90;;;;;;;;;;5010458;28;20157;-70
2021/06/14 12:59:24;;;;;;;15.95;8.30;;;;;;;;;;5006475;28;20030;-70
2021/06/14 13:01:51;;;;;;;15.40;9.38;;;;;;;;;;5010871;28;20025;-70
2021/06/14 13:04:18;;;;;;;11.43;7.93;;;;;;;;;;4996890;28;20116;-69
2021/06/14 13:06:45;;;;;;;16.73;9.50;;;;;;;;;;5011268;28;20478;-69
2021/06/14 13:09:13;;;;;;;16.15;8.48;;;;;;;;;;5013595;28;20026;-70
2021/06/14 13:11:45;;;;;;;13.65;9.20;;;;;;;;;;5015232;28;20083;-70
2021/06/14 13:14:12;;;;;;;14.70;9.85;;;;;;;;;;5010994;28;20027;-70
2021/06/14 13:16:47;;;;;;;15.38;8.88;;;;;;;;;;5011118;28;20030;-70
2021/06/14 13:19:13;;;;;;;;;;;;;;;;;;4994796;28;20034;-70
2021/06/14 13:21:41;;;;;;;13.82;10.00;;;;;;;;;;5010353;28;19913;-70
2021/06/14 13:24:10;;;;;;;15.85;9.65;;;;;;;;;;5012910;28;20457;-69
2021/06/14 13:26:39;;;;;;;13.27;9.88;;;;;;;;;;5011162;28;20030;-70
2021/06/14 13:29:15;;;;;;;21.42;10.93;;;;;;;;;;5012383;28;20449;-71
2021/06/14 13:31:43;;;;;;;16.98;10.30;;;;;;;;;;5012448;28;20057;-69
2021/06/14 13:34:22;;;;;;;18.92;10.68;;;;;;;;;;5013307;28;20049;-69
2021/06/14 13:36:50;;;;;;;17.10;10.80;;;;;;;;;;5008737;28;20045;-70
2021/06/14 13:39:25;;;;;;;16.27;10.35;;;;;;;;;;5006148;28;20048;-70
2021/06/14 13:42:00;;;;;;;15.88;11.20;;;;;;;;;;5009264;28;20034;-70
2021/06/14 13:44:27;;;;;;;18.95;11.45;;;;;;;;;;4991181;28;20038;-70
2021/06/14 13:46:55;;;;;;;17.13;10.77;;;;;;;;;;5009542;28;20058;-70
2021/06/14 13:49:42;;;;;;;16.38;11.13;;;;;;;;;;4999814;28;20088;-70
2021/06/14 13:52:10;;;;;;;18.73;11.38;;;;;;;;;;4993778;28;20128;-70
2021/06/14 13:54:39;;;;;;;16.15;10.45;;;;;;;;;;5012275;28;20018;-70
2021/06/14 13:57:10;;;;;;;16.23;11.10;;;;;;;;;;5012670;28;20033;-70
2021/06/14 13:59:37;;;;;;;17.05;11.43;;;;;;;;;;5010303;28;20068;-70
2021/06/14 14:02:05;;;;;;;18.40;12.15;;;;;;;;;;5010474;28;20566;-69
2021/06/14 14:04:32;;;;;;;16.80;11.23;;;;;;;;;;5014363;28;20026;-69
2021/06/14 14:07:00;;;;;;;18.15;12.65;;;;;;;;;;4993889;28;20041;-69
2021/06/14 14:09:28;;;;;;;18.77;11.40;;;;;;;;;;5009761;28;20040;-69
2021/06/14 14:11:56;;;;;;;14.00;10.80;;;;;;;;;;5011179;28;20450;-69
2021/06/14 14:14:25;;;;;;;16.45;12.27;;;;;;;;;;4980041;28;20044;-69
2021/06/14 14:16:54;;;;;;;16.08;12.25;;;;;;;;;;5008817;28;20034;-69
2021/06/14 14:19:33;;;;;;;17.05;12.35;;;;;;;;;;5011806;28;20040;-69
2021/06/14 14:22:00;;;;;;;19.40;13.05;;;;;;;;;;5009642;28;20026;-69
2021/06/14 14:24:27;;;;;;;19.63;11.30;;;;;;;;;;5011094;28;20499;-69
2021/06/14 14:26:55;;;;;;;17.48;12.55;;;;;;;;;;5010390;28;20030;-69
2021/06/14 14:29:24;;;;;;;18.70;11.93;;;;;;;;;;5012683;28;20041;-69
2021/06/14 14:31:57;;;;;;;18.98;12.88;;;;;;;;;;5010588;28;20057;-69
2021/06/14 14:34:32;;;;;;;16.27;12.32;;;;;;;;;;5012428;28;20033;-69
2021/06/14 14:36:59;;;;;;;17.45;11.32;;;;;;;;;;5007973;28;20068;-69
2021/06/14 14:39:31;;;;;;;15.75;11.32;;;;;;;;;;4989662;28;20374;-69
2021/06/14 14:41:59;;;;;;;15.60;10.85;;;;;;;;;;5006842;28;20033;-69
2021/06/14 14:44:28;;;;;;;17.80;11.27;;;;;;;;;;4994238;28;20134;-69
2021/06/14 14:46:55;;;;;;;17.63;11.40;;;;;;;;;;5004327;28;20573;-69
2021/06/14 14:49:23;;;;;;;15.15;10.43;;;;;;;;;;5011094;28;20029;-69
2021/06/14 14:51:58;;;;;;;16.90;10.85;;;;;;;;;;5016928;28;20042;-70
2021/06/14 14:54:25;;;;;;;13.60;10.38;;;;;;;;;;5018523;28;20100;-69
2021/06/14 14:56:53;;;;;;;12.25;9.43;;;;;;;;;;5016415;28;20029;-69
2021/06/14 14:59:20;;;;;;;14.50;9.85;;;;;;;;;;5018625;28;20018;-69